sensor_id;sensor_type;location;lat;lon;timestamp;pressure;altitude;pressure_sealevel;temperature;humidity
25156;BME280;21913;52.456;13.634;2023-04-25T00:04:22;99572.25;;;13.27;78.10
25156;BME280;21913;52.456;13.634;2023-04-25T00:09:23;99561.84;;;13.27;78.02
25156;BME280;21913;52.456;13.634;2023-04-25T00:14:25;99570.50;;;13.26;78.13
25156;BME280;21913;52.456;13.634;2023-04-25T00:19:26;99567.91;;;13.26;78.06
25156;BME280;21913;52.456;13.634;2023-04-25T00:24:28;99567.91;;;13.26;77.98
25156;BME280;21913;52.456;13.634;2023-04-25T00:29:29;99568.78;;;13.25;78.04
25156;BME280;21913;52.456;13.634;2023-04-25T00:34:31;99575.69;;;13.26;78.13
25156;BME280;21913;52.456;13.634;2023-04-25T00:39:32;99574.00;;;13.25;78.08
25156;BME280;21913;52.456;13.634;2023-04-25T00:44:35;99573.13;;;13.24;78.12
25156;BME280;21913;52.456;13.634;2023-04-25T00:49:36;99574.00;;;13.25;78.21
25156;BME280;21913;52.456;13.634;2023-04-25T00:54:38;99567.94;;;13.24;78.08
25156;BME280;21913;52.456;13.634;2023-04-25T00:59:42;99570.50;;;13.26;78.17
25156;BME280;21913;52.456;13.634;2023-04-25T01:04:47;99566.19;;;13.25;78.15
25156;BME280;21913;52.456;13.634;2023-04-25T01:09:51;99567.09;;;13.24;78.08
25156;BME280;21913;52.456;13.634;2023-04-25T01:14:53;99571.44;;;13.23;78.07
25156;BME280;21913;52.456;13.634;2023-04-25T01:19:54;99571.44;;;13.23;78.12
25156;BME280;21913;52.456;13.634;2023-04-25T01:24:56;99577.47;;;13.24;78.22
25156;BME280;21913;52.456;13.634;2023-04-25T01:29:59;99574.88;;;13.24;78.06
25156;BME280;21913;52.456;13.634;2023-04-25T01:35:00;99569.69;;;13.24;78.09
25156;BME280;21913;52.456;13.634;2023-04-25T01:40:03;99570.56;;;13.23;78.51
25156;BME280;21913;52.456;13.634;2023-04-25T01:45:05;99581.81;;;13.23;78.15
25156;BME280;21913;52.456;13.634;2023-04-25T01:50:08;99584.41;;;13.23;78.15
25156;BME280;21913;52.456;13.634;2023-04-25T01:55:11;99584.41;;;13.23;78.14
25156;BME280;21913;52.456;13.634;2023-04-25T02:00:18;99587.03;;;13.23;78.18
25156;BME280;21913;52.456;13.634;2023-04-25T02:05:20;99592.25;;;13.22;78.25
25156;BME280;21913;52.456;13.634;2023-04-25T02:10:21;99594.81;;;13.23;78.25
25156;BME280;21913;52.456;13.634;2023-04-25T02:15:37;99601.75;;;13.23;78.24
25156;BME280;21913;52.456;13.634;2023-04-25T02:20:49;99605.25;;;13.22;78.25
25156;BME280;21913;52.456;13.634;2023-04-25T02:25:50;99598.31;;;13.22;78.32
25156;BME280;21913;52.456;13.634;2023-04-25T02:30:53;99600.03;;;13.22;78.20
25156;BME280;21913;52.456;13.634;2023-04-25T02:35:55;99601.78;;;13.21;78.21
25156;BME280;21913;52.456;13.634;2023-04-25T02:40:56;99603.50;;;13.22;78.22
25156;BME280;21913;52.456;13.634;2023-04-25T02:46:00;99605.25;;;13.22;78.20
25156;BME280;21913;52.456;13.634;2023-04-25T02:51:01;99605.22;;;13.20;78.33
25156;BME280;21913;52.456;13.634;2023-04-25T02:56:04;99611.28;;;13.19;78.31
25156;BME280;21913;52.456;13.634;2023-04-25T03:01:06;99610.41;;;13.20;78.29
25156;BME280;21913;52.456;13.634;2023-04-25T03:06:07;99614.75;;;13.20;78.31
25156;BME280;21913;52.456;13.634;2023-04-25T03:11:08;99620.78;;;13.20;78.33
25156;BME280;21913;52.456;13.634;2023-04-25T03:16:10;99629.44;;;13.21;78.28
25156;BME280;21913;52.456;13.634;2023-04-25T03:21:12;99629.44;;;13.21;78.33
25156;BME280;21913;52.456;13.634;2023-04-25T03:26:13;99635.53;;;13.20;78.35
25156;BME280;21913;52.456;13.634;2023-04-25T03:31:15;99638.97;;;13.20;78.28
25156;BME280;21913;52.456;13.634;2023-04-25T03:36:16;99640.75;;;13.18;78.33
25156;BME280;21913;52.456;13.634;2023-04-25T03:41:18;99651.13;;;13.20;78.23
25156;BME280;21913;52.456;13.634;2023-04-25T03:46:24;99654.59;;;13.19;78.33
25156;BME280;21913;52.456;13.634;2023-04-25T03:51:26;99664.09;;;13.20;78.37
25156;BME280;21913;52.456;13.634;2023-04-25T03:56:27;99658.94;;;13.18;78.38
25156;BME280;21913;52.456;13.634;2023-04-25T04:01:36;99671.94;;;13.18;78.36
25156;BME280;21913;52.456;13.634;2023-04-25T04:06:38;99672.78;;;13.19;78.31
25156;BME280;21913;52.456;13.634;2023-04-25T04:11:47;99671.94;;;13.18;78.39
25156;BME280;21913;52.456;13.634;2023-04-25T04:16:50;99677.13;;;13.18;78.46
25156;BME280;21913;52.456;13.634;2023-04-25T04:21:52;99678.00;;;13.17;78.37
25156;BME280;21913;52.456;13.634;2023-04-25T04:26:55;99683.22;;;13.17;78.34
25156;BME280;21913;52.456;13.634;2023-04-25T04:32:19;99691.84;;;13.18;78.29
25156;BME280;21913;52.456;13.634;2023-04-25T04:37:21;99687.56;;;13.16;78.35
25156;BME280;21913;52.456;13.634;2023-04-25T04:42:23;99695.34;;;13.16;78.38
25156;BME280;21913;52.456;13.634;2023-04-25T04:47:40;99704.00;;;13.17;78.42
25156;BME280;21913;52.456;13.634;2023-04-25T04:53:08;99710.94;;;13.16;78.27
25156;BME280;21913;52.456;13.634;2023-04-25T04:58:27;99720.47;;;13.16;78.36
25156;BME280;21913;52.456;13.634;2023-04-25T05:03:41;99723.91;;;13.16;78.35
25156;BME280;21913;52.456;13.634;2023-04-25T05:09:01;99740.34;;;13.15;78.43
25156;BME280;21913;52.456;13.634;2023-04-25T05:14:21;99739.50;;;13.15;78.34
25156;BME280;21913;52.456;13.634;2023-04-25T05:19:39;99744.69;;;13.15;78.36
25156;BME280;21913;52.456;13.634;2023-04-25T05:25:13;99749.03;;;13.14;78.43
25156;BME280;21913;52.456;13.634;2023-04-25T05:30:43;99755.09;;;13.15;78.42
25156;BME280;21913;52.456;13.634;2023-04-25T05:35:50;99757.69;;;13.15;78.52
25156;BME280;21913;52.456;13.634;2023-04-25T05:40:52;99761.13;;;13.15;78.52
25156;BME280;21913;52.456;13.634;2023-04-25T05:46:13;99771.56;;;13.14;78.48
25156;BME280;21913;52.456;13.634;2023-04-25T05:51:26;99774.16;;;13.14;78.46
25156;BME280;21913;52.456;13.634;2023-04-25T05:56:56;99781.94;;;13.14;78.46
25156;BME280;21913;52.456;13.634;2023-04-25T06:01:58;99779.34;;;13.14;78.58
25156;BME280;21913;52.456;13.634;2023-04-25T06:07:01;99788.88;;;13.13;78.51
25156;BME280;21913;52.456;13.634;2023-04-25T06:12:03;99793.19;;;13.14;78.43
25156;BME280;21913;52.456;13.634;2023-04-25T06:17:05;99803.59;;;13.14;78.40
25156;BME280;21913;52.456;13.634;2023-04-25T06:22:07;99809.66;;;13.13;78.46
25156;BME280;21913;52.456;13.634;2023-04-25T06:27:09;99815.72;;;13.14;78.47
25156;BME280;21913;52.456;13.634;2023-04-25T06:32:11;99814.00;;;13.13;78.46
25156;BME280;21913;52.456;13.634;2023-04-25T06:37:12;99815.72;;;13.14;78.38
25156;BME280;21913;52.456;13.634;2023-04-25T06:42:15;99815.72;;;13.14;78.44
25156;BME280;21913;52.456;13.634;2023-04-25T06:47:26;99828.75;;;13.12;78.42
25156;BME280;21913;52.456;13.634;2023-04-25T06:52:27;99827.03;;;13.11;78.41
25156;BME280;21913;52.456;13.634;2023-04-25T06:57:29;99838.25;;;13.13;78.42
25156;BME280;21913;52.456;13.634;2023-04-25T07:02:41;99842.56;;;13.13;78.48
25156;BME280;21913;52.456;13.634;2023-04-25T07:07:43;99848.63;;;13.13;78.50
25156;BME280;21913;52.456;13.634;2023-04-25T07:12:44;99855.56;;;13.13;78.44
25156;BME280;21913;52.456;13.634;2023-04-25T07:17:46;99850.38;;;13.13;78.56
25156;BME280;21913;52.456;13.634;2023-04-25T07:22:47;99841.69;;;13.14;78.62
25156;BME280;21913;52.456;13.634;2023-04-25T07:27:49;99855.56;;;13.13;78.45
25156;BME280;21913;52.456;13.634;2023-04-25T07:32:53;99854.72;;;13.12;78.45
25156;BME280;21913;52.456;13.634;2023-04-25T07:37:54;99853.81;;;13.13;78.53
25156;BME280;21913;52.456;13.634;2023-04-25T07:42:57;99865.06;;;13.14;78.51
25156;BME280;21913;52.456;13.634;2023-04-25T07:48:10;99877.22;;;13.13;78.59
25156;BME280;21913;52.456;13.634;2023-04-25T07:53:13;99885.00;;;13.13;78.47
25156;BME280;21913;52.456;13.634;2023-04-25T07:58:24;99888.44;;;13.14;78.38
25156;BME280;21913;52.456;13.634;2023-04-25T08:03:31;99895.38;;;13.13;78.30
25156;BME280;21913;52.456;13.634;2023-04-25T08:08:33;99894.53;;;13.13;78.14
25156;BME280;21913;52.456;13.634;2023-04-25T08:13:35;99903.19;;;13.13;78.11
25156;BME280;21913;52.456;13.634;2023-04-25T08:18:37;99913.56;;;13.13;78.02
25156;BME280;21913;52.456;13.634;2023-04-25T08:23:39;99914.44;;;13.14;78.17
25156;BME280;21913;52.456;13.634;2023-04-25T08:28:47;99924.84;;;13.12;78.06
25156;BME280;21913;52.456;13.634;2023-04-25T08:33:49;99927.41;;;13.14;78.08
25156;BME280;21913;52.456;13.634;2023-04-25T08:39:19;99934.38;;;13.12;77.97
25156;BME280;21913;52.456;13.634;2023-04-25T08:44:41;99943.03;;;13.12;77.96
25156;BME280;21913;52.456;13.634;2023-04-25T08:49:45;99943.88;;;13.13;77.76
25156;BME280;21913;52.456;13.634;2023-04-25T08:54:48;99944.75;;;13.13;78.17
25156;BME280;21913;52.456;13.634;2023-04-25T08:59:52;99964.66;;;13.13;78.11
25156;BME280;21913;52.456;13.634;2023-04-25T09:04:55;99969.88;;;13.13;78.18
25156;BME280;21913;52.456;13.634;2023-04-25T09:09:57;99965.50;;;13.15;77.97
25156;BME280;21913;52.456;13.634;2023-04-25T09:15:07;99977.63;;;13.16;78.04
25156;BME280;21913;52.456;13.634;2023-04-25T09:20:20;99977.63;;;13.14;78.07
25156;BME280;21913;52.456;13.634;2023-04-25T09:25:22;99992.34;;;13.14;78.02
25156;BME280;21913;52.456;13.634;2023-04-25T09:30:30;99999.28;;;13.13;78.02
25156;BME280;21913;52.456;13.634;2023-04-25T09:35:54;99996.69;;;13.13;78.06
25156;BME280;21913;52.456;13.634;2023-04-25T09:41:37;100002.78;;;13.12;78.10
25156;BME280;21913;52.456;13.634;2023-04-25T09:46:39;100015.75;;;13.12;78.31
25156;BME280;21913;52.456;13.634;2023-04-25T09:51:56;100024.41;;;13.13;78.30
25156;BME280;21913;52.456;13.634;2023-04-25T09:57:16;100018.38;;;13.12;78.35
25156;BME280;21913;52.456;13.634;2023-04-25T10:02:26;100017.50;;;13.12;78.42
25156;BME280;21913;52.456;13.634;2023-04-25T10:07:33;100018.38;;;13.11;78.42
25156;BME280;21913;52.456;13.634;2023-04-25T10:12:40;100017.53;;;13.10;78.61
25156;BME280;21913;52.456;13.634;2023-04-25T10:17:42;100018.38;;;13.11;78.57
25156;BME280;21913;52.456;13.634;2023-04-25T10:22:46;100025.31;;;13.10;78.52
25156;BME280;21913;52.456;13.634;2023-04-25T10:27:51;100028.78;;;13.11;78.25
25156;BME280;21913;52.456;13.634;2023-04-25T10:32:54;100037.44;;;13.11;78.52
25156;BME280;21913;52.456;13.634;2023-04-25T10:37:57;100048.69;;;13.12;78.17
25156;BME280;21913;52.456;13.634;2023-04-25T10:48:34;100050.41;;;13.11;78.25
25156;BME280;21913;52.456;13.634;2023-04-25T10:53:36;100044.38;;;13.11;78.31
25156;BME280;21913;52.456;13.634;2023-04-25T10:58:42;100040.00;;;13.10;78.43
25156;BME280;21913;52.456;13.634;2023-04-25T11:03:44;100052.16;;;13.09;78.52
25156;BME280;21913;52.456;13.634;2023-04-25T11:08:50;100052.16;;;13.09;78.43
25156;BME280;21913;52.456;13.634;2023-04-25T11:13:52;100059.94;;;13.11;78.49
25156;BME280;21913;52.456;13.634;2023-04-25T11:18:57;100053.00;;;13.10;78.55
25156;BME280;21913;52.456;13.634;2023-04-25T11:23:59;100068.59;;;13.10;78.57
25156;BME280;21913;52.456;13.634;2023-04-25T11:29:01;100058.19;;;13.10;78.46
25156;BME280;21913;52.456;13.634;2023-04-25T11:34:02;100046.94;;;13.09;78.46
25156;BME280;21913;52.456;13.634;2023-04-25T11:39:04;100059.09;;;13.09;78.36
25156;BME280;21913;52.456;13.634;2023-04-25T11:44:05;100068.59;;;13.10;78.35
25156;BME280;21913;52.456;13.634;2023-04-25T11:49:07;100067.72;;;13.09;78.43
25156;BME280;21913;52.456;13.634;2023-04-25T11:54:09;100067.72;;;13.09;78.41
25156;BME280;21913;52.456;13.634;2023-04-25T11:59:11;100065.13;;;13.09;78.40
25156;BME280;21913;52.456;13.634;2023-04-25T12:04:24;100064.28;;;13.10;78.35
25156;BME280;21913;52.456;13.634;2023-04-25T12:09:29;100070.31;;;13.09;78.33
25156;BME280;21913;52.456;13.634;2023-04-25T12:14:33;100073.78;;;13.10;78.33
25156;BME280;21913;52.456;13.634;2023-04-25T12:19:37;100094.56;;;13.10;78.30
25156;BME280;21913;52.456;13.634;2023-04-25T12:24:38;100092.00;;;13.08;78.18
25156;BME280;21913;52.456;13.634;2023-04-25T12:29:53;100088.50;;;13.09;78.29
25156;BME280;21913;52.456;13.634;2023-04-25T12:34:54;100104.09;;;13.09;78.24
25156;BME280;21913;52.456;13.634;2023-04-25T12:39:56;100106.69;;;13.09;78.29
25156;BME280;21913;52.456;13.634;2023-04-25T12:44:57;100101.50;;;13.09;78.42
25156;BME280;21913;52.456;13.634;2023-04-25T12:49:59;100105.88;;;13.07;78.46
25156;BME280;21913;52.456;13.634;2023-04-25T12:55:00;100116.22;;;13.09;78.51
25156;BME280;21913;52.456;13.634;2023-04-25T13:00:02;100117.13;;;13.08;78.53
25156;BME280;21913;52.456;13.634;2023-04-25T13:05:04;100123.19;;;13.07;78.37
25156;BME280;21913;52.456;13.634;2023-04-25T13:10:07;100133.69;;;12.92;75.40
25156;BME280;21913;52.456;13.634;2023-04-25T13:15:09;100130.28;;;12.85;73.78
25156;BME280;21913;52.456;13.634;2023-04-25T13:20:10;100125.09;;;12.85;73.75
25156;BME280;21913;52.456;13.634;2023-04-25T13:25:12;100126.78;;;12.87;73.79
25156;BME280;21913;52.456;13.634;2023-04-25T13:30:13;100120.75;;;12.88;73.98
25156;BME280;21913;52.456;13.634;2023-04-25T13:35:16;100123.34;;;12.90;74.33
25156;BME280;21913;52.456;13.634;2023-04-25T13:40:18;100113.81;;;12.89;71.31
25156;BME280;21913;52.456;13.634;2023-04-25T13:45:19;100121.53;;;12.98;68.20
25156;BME280;21913;52.456;13.634;2023-04-25T13:50:21;100124.88;;;13.09;68.30
25156;BME280;21913;52.456;13.634;2023-04-25T13:55:23;100119.63;;;13.17;69.03
25156;BME280;21913;52.456;13.634;2023-04-25T14:00:24;100128.25;;;13.27;69.86
25156;BME280;21913;52.456;13.634;2023-04-25T14:05:26;100125.56;;;13.31;70.63
25156;BME280;21913;52.456;13.634;2023-04-25T14:10:27;100126.41;;;13.36;71.34
25156;BME280;21913;52.456;13.634;2023-04-25T14:15:32;100127.22;;;13.40;71.94
25156;BME280;21913;52.456;13.634;2023-04-25T14:20:34;100134.13;;;13.42;72.54
25156;BME280;21913;52.456;13.634;2023-04-25T14:25:36;100141.03;;;13.45;73.16
25156;BME280;21913;52.456;13.634;2023-04-25T14:30:38;100146.22;;;13.47;73.46
25156;BME280;21913;52.456;13.634;2023-04-25T14:35:39;100147.94;;;13.48;74.19
25156;BME280;21913;52.456;13.634;2023-04-25T14:40:41;100156.59;;;13.48;74.48
25156;BME280;21913;52.456;13.634;2023-04-25T14:45:42;100154.88;;;13.49;74.70
25156;BME280;21913;52.456;13.634;2023-04-25T14:50:44;100150.53;;;13.49;75.05
25156;BME280;21913;52.456;13.634;2023-04-25T14:55:45;100157.47;;;13.50;75.37
25156;BME280;21913;52.456;13.634;2023-04-25T15:00:47;100152.25;;;13.50;75.65
25156;BME280;21913;52.456;13.634;2023-04-25T15:05:48;100155.72;;;13.51;75.90
25156;BME280;21913;52.456;13.634;2023-04-25T15:10:50;100158.34;;;13.49;76.03
25156;BME280;21913;52.456;13.634;2023-04-25T15:15:51;100158.31;;;13.51;76.20
25156;BME280;21913;52.456;13.634;2023-04-25T15:20:53;100162.66;;;13.50;76.47
25156;BME280;21913;52.456;13.634;2023-04-25T15:25:54;100164.38;;;13.48;76.66
25156;BME280;21913;52.456;13.634;2023-04-25T15:30:56;100172.19;;;13.48;76.71
25156;BME280;21913;52.456;13.634;2023-04-25T15:35:58;100164.38;;;13.48;77.00
25156;BME280;21913;52.456;13.634;2023-04-25T15:40:59;100171.31;;;13.48;77.01
25156;BME280;21913;52.456;13.634;2023-04-25T15:46:01;100173.06;;;13.47;77.09
25156;BME280;21913;52.456;13.634;2023-04-25T15:51:02;100169.59;;;13.47;77.10
25156;BME280;21913;52.456;13.634;2023-04-25T15:56:04;100173.94;;;13.48;77.34
25156;BME280;21913;52.456;13.634;2023-04-25T16:01:05;100187.81;;;13.47;77.34
25156;BME280;21913;52.456;13.634;2023-04-25T16:06:07;100191.25;;;13.47;77.51
25156;BME280;21913;52.456;13.634;2023-04-25T16:11:08;100187.81;;;13.45;77.69
25156;BME280;21913;52.456;13.634;2023-04-25T16:16:10;100188.72;;;13.44;77.75
25156;BME280;21913;52.456;13.634;2023-04-25T16:21:11;100190.44;;;13.45;77.92
25156;BME280;21913;52.456;13.634;2023-04-25T16:26:13;100184.38;;;13.45;77.90
25156;BME280;21913;52.456;13.634;2023-04-25T16:31:15;100188.72;;;13.44;78.08
25156;BME280;21913;52.456;13.634;2023-04-25T16:36:16;100173.13;;;13.44;78.06
25156;BME280;21913;52.456;13.634;2023-04-25T16:41:18;100180.91;;;13.44;78.18
25156;BME280;21913;52.456;13.634;2023-04-25T16:46:19;100176.59;;;13.43;78.18
25156;BME280;21913;52.456;13.634;2023-04-25T16:51:27;100180.03;;;13.42;78.25
25156;BME280;21913;52.456;13.634;2023-04-25T16:56:29;100185.25;;;13.42;78.23
25156;BME280;21913;52.456;13.634;2023-04-25T17:01:30;100199.13;;;13.41;78.31
25156;BME280;21913;52.456;13.634;2023-04-25T17:06:32;100194.78;;;13.41;78.42
25156;BME280;21913;52.456;13.634;2023-04-25T17:11:33;100208.66;;;13.40;78.60
25156;BME280;21913;52.456;13.634;2023-04-25T17:16:36;100213.00;;;13.40;78.50
25156;BME280;21913;52.456;13.634;2023-04-25T17:21:38;100219.94;;;13.39;78.38
25156;BME280;21913;52.456;13.634;2023-04-25T17:26:40;100225.16;;;13.38;78.60
25156;BME280;21913;52.456;13.634;2023-04-25T17:31:41;100235.56;;;13.38;78.67
25156;BME280;21913;52.456;13.634;2023-04-25T17:36:44;100235.56;;;13.38;78.60
25156;BME280;21913;52.456;13.634;2023-04-25T17:41:45;100239.00;;;13.37;78.61
25156;BME280;21913;52.456;13.634;2023-04-25T17:46:47;100249.38;;;13.37;78.66
25156;BME280;21913;52.456;13.634;2023-04-25T17:51:48;100260.66;;;13.36;78.71
25156;BME280;21913;52.456;13.634;2023-04-25T17:56:50;100252.88;;;13.36;78.90
25156;BME280;21913;52.456;13.634;2023-04-25T18:01:51;100257.22;;;13.35;78.71
25156;BME280;21913;52.456;13.634;2023-04-25T18:06:53;100258.09;;;13.34;78.73
25156;BME280;21913;52.456;13.634;2023-04-25T18:11:54;100270.22;;;13.34;78.71
25156;BME280;21913;52.456;13.634;2023-04-25T18:16:56;100273.69;;;13.33;78.80
25156;BME280;21913;52.456;13.634;2023-04-25T18:21:57;100278.91;;;13.33;78.94
25156;BME280;21913;52.456;13.634;2023-04-25T18:32:23;100302.28;;;13.31;79.01
25156;BME280;21913;52.456;13.634;2023-04-25T18:37:25;100311.81;;;13.31;78.47
25156;BME280;21913;52.456;13.634;2023-04-25T18:42:27;100309.25;;;13.26;77.78
25156;BME280;21913;52.456;13.634;2023-04-25T18:47:28;100314.44;;;13.26;77.60
25156;BME280;21913;52.456;13.634;2023-04-25T18:52:30;100330.91;;;13.27;77.74
25156;BME280;21913;52.456;13.634;2023-04-25T18:57:31;100336.97;;;13.27;77.78
25156;BME280;21913;52.456;13.634;2023-04-25T19:02:33;100341.31;;;13.27;77.99
25156;BME280;21913;52.456;13.634;2023-04-25T19:07:36;100349.09;;;13.27;78.10
25156;BME280;21913;52.456;13.634;2023-04-25T19:12:37;100363.81;;;13.25;77.94
25156;BME280;21913;52.456;13.634;2023-04-25T19:17:39;100365.53;;;13.26;78.23
25156;BME280;21913;52.456;13.634;2023-04-25T19:22:41;100366.41;;;13.25;78.21
25156;BME280;21913;52.456;13.634;2023-04-25T19:27:42;100369.03;;;13.25;78.53
25156;BME280;21913;52.456;13.634;2023-04-25T19:32:44;100366.41;;;13.25;78.42
25156;BME280;21913;52.456;13.634;2023-04-25T19:37:45;100368.16;;;13.24;78.55
25156;BME280;21913;52.456;13.634;2023-04-25T19:42:47;100372.50;;;13.24;78.66
25156;BME280;21913;52.456;13.634;2023-04-25T19:47:48;100370.78;;;13.23;78.72
25156;BME280;21913;52.456;13.634;2023-04-25T19:52:50;100364.72;;;13.22;78.66
25156;BME280;21913;52.456;13.634;2023-04-25T19:57:52;100385.50;;;13.22;78.61
25156;BME280;21913;52.456;13.634;2023-04-25T20:02:53;100386.38;;;13.23;78.72
25156;BME280;21913;52.456;13.634;2023-04-25T20:07:55;100384.66;;;13.22;78.75
25156;BME280;21913;52.456;13.634;2023-04-25T20:12:56;100388.97;;;13.21;78.79
25156;BME280;21913;52.456;13.634;2023-04-25T20:17:58;100387.19;;;13.20;78.87
25156;BME280;21913;52.456;13.634;2023-04-25T20:22:59;100392.38;;;13.20;78.85
25156;BME280;21913;52.456;13.634;2023-04-25T20:28:00;100397.59;;;13.19;78.97
25156;BME280;21913;52.456;13.634;2023-04-25T20:33:02;100393.28;;;13.18;78.83
25156;BME280;21913;52.456;13.634;2023-04-25T20:38:04;100393.28;;;13.18;79.00
25156;BME280;21913;52.456;13.634;2023-04-25T20:43:05;100395.88;;;13.18;78.79
25156;BME280;21913;52.456;13.634;2023-04-25T20:48:07;100402.81;;;13.17;79.05
25156;BME280;21913;52.456;13.634;2023-04-25T20:53:08;100416.66;;;13.18;79.01
25156;BME280;21913;52.456;13.634;2023-04-25T20:58:10;100414.09;;;13.16;79.15
25156;BME280;21913;52.456;13.634;2023-04-25T21:03:12;100405.41;;;13.15;78.92
25156;BME280;21913;52.456;13.634;2023-04-25T21:08:13;100420.97;;;13.15;79.07
25156;BME280;21913;52.456;13.634;2023-04-25T21:13:15;100420.13;;;13.15;78.99
25156;BME280;21913;52.456;13.634;2023-04-25T21:18:16;100420.13;;;13.15;79.02
25156;BME280;21913;52.456;13.634;2023-04-25T21:23:18;100415.81;;;13.14;78.84
25156;BME280;21913;52.456;13.634;2023-04-25T21:28:19;100424.47;;;13.16;79.00
25156;BME280;21913;52.456;13.634;2023-04-25T21:33:21;100416.66;;;13.14;78.94
25156;BME280;21913;52.456;13.634;2023-04-25T21:38:22;100419.25;;;13.14;78.94
25156;BME280;21913;52.456;13.634;2023-04-25T21:43:24;100429.66;;;13.14;79.00
25156;BME280;21913;52.456;13.634;2023-04-25T21:48:25;100427.06;;;13.13;78.90
25156;BME280;21913;52.456;13.634;2023-04-25T21:53:27;100427.06;;;13.13;78.91
25156;BME280;21913;52.456;13.634;2023-04-25T21:58:28;100423.63;;;13.12;78.91
25156;BME280;21913;52.456;13.634;2023-04-25T22:03:30;100428.81;;;13.12;78.94
25156;BME280;21913;52.456;13.634;2023-04-25T22:08:32;100427.09;;;13.11;78.83
25156;BME280;21913;52.456;13.634;2023-04-25T22:13:33;100437.47;;;13.11;78.90
25156;BME280;21913;52.456;13.634;2023-04-25T22:18:35;100438.34;;;13.10;78.94
25156;BME280;21913;52.456;13.634;2023-04-25T22:23:37;100443.56;;;13.10;78.94
25156;BME280;21913;52.456;13.634;2023-04-25T22:28:38;100443.56;;;13.10;78.82
25156;BME280;21913;52.456;13.634;2023-04-25T22:33:40;100452.22;;;13.11;78.88
25156;BME280;21913;52.456;13.634;2023-04-25T22:38:41;100455.66;;;13.10;78.83
25156;BME280;21913;52.456;13.634;2023-04-25T22:43:43;100462.59;;;13.09;78.77
25156;BME280;21913;52.456;13.634;2023-04-25T22:48:46;100474.72;;;13.09;78.86
25156;BME280;21913;52.456;13.634;2023-04-25T22:53:48;100473.84;;;13.08;78.76
25156;BME280;21913;52.456;13.634;2023-04-25T22:58:49;100477.31;;;13.09;78.85
25156;BME280;21913;52.456;13.634;2023-04-25T23:03:51;100478.19;;;13.08;78.89
25156;BME280;21913;52.456;13.634;2023-04-25T23:08:52;100487.72;;;13.07;78.86
25156;BME280;21913;52.456;13.634;2023-04-25T23:13:54;100486.84;;;13.08;78.82
25156;BME280;21913;52.456;13.634;2023-04-25T23:18:55;100487.72;;;13.07;78.83
25156;BME280;21913;52.456;13.634;2023-04-25T23:23:57;100486.84;;;13.07;78.78
25156;BME280;21913;52.456;13.634;2023-04-25T23:28:58;100496.38;;;13.06;78.87
25156;BME280;21913;52.456;13.634;2023-04-25T23:34:00;100496.38;;;13.06;78.86
25156;BME280;21913;52.456;13.634;2023-04-25T23:39:01;100497.25;;;13.05;78.84
25156;BME280;21913;52.456;13.634;2023-04-25T23:44:03;100493.78;;;13.06;78.65
25156;BME280;21913;52.456;13.634;2023-04-25T23:49:04;100493.81;;;13.05;78.56
25156;BME280;21913;52.456;13.634;2023-04-25T23:54:05;100496.38;;;13.06;78.72
25156;BME280;21913;52.456;13.634;2023-04-25T23:59:07;100489.47;;;13.05;78.68
